Terminal Aerodrome Forecast
Issued by NWS Midland/Odessa, TX

Home | Current Version | Previous Version | Text Only | Print | Product List | Glossary On
Versions: 1 2 3 4 5 6 7 8 9 10 11 12 13 14 15 16 17 18 19 20 21 22
411
FTUS44 KMAF 290428 AAD
TAFMAF
TAF AMD
KMAF 290428Z 2904/2924 17011KT P6SM FEW150 BKN200
     FM290800 35013G20KT P6SM BKN100
      TEMPO 2908/2910 -TSRA SCT030 BKN060CB
     FM291500 36011KT P6SM BKN040=

USA.gov is the U.S. government's official web portal to all federal, state and local government web resources and services.